Other Surface Observations
Issued by NWS Great Falls, MT

Home | Current Version | Previous Version | Text Only | Print | Product List | Glossary On
Versions: 1 2 3 4 5 6 7 8 9 10 11 12 13 14 15 16 17 18 19 20 21 22 23 24 25 26 27 28 29 30 31 32 33 34 35 36 37 38 39 40 41 42 43 44 45 46 47 48 49 50
000
SXUS55 KTFX 191401
OSOTFX

AREA AWOS OBSERVATIONS
NATIONAL WEATHER SERVICE GREAT FALLS MT
0701 AM MST Fri Jan 19 2018

METAR KCII 191400Z AUTO 22010G17KT 170V240 10SM 03/M06 A2963 RMK A01
METAR K6S0 191400Z AUTO 25011KT 10SM FEW009 OVC027 02/01 A2969 RMK A01
METAR K6S8 191355Z AUTO 25006KT 10SM 01/01 A2970 RMK A01
METAR K7S6 191400Z AUTO 25003KT 10SM 01/M02 A2965 RMK A01
METAR K7S0 191355Z AUTO 17005KT 10SM 01/M01 A2977 RMK A01



USA.gov is the U.S. government's official web portal to all federal, state and local government web resources and services.